Rhourd El Adra — 7TBS — position and weather

sailwx.info

Track history (hours):
 
Tides and Currents Weather Stations Pressure Air Temp Water Temp Dewpoint Dewpoint Depression Visibility Wind Speed Wind Dir Waves Ship Positions

Rhourd El Adra

Last reported at 2017-Apr-25 06:23 UTC. Time now 2017-Apr-26 13:46 UTC.
Position N 35°53' W 000°15'.

Length 156 m; draft 6.8 m.

Type: Ship (hazmat cat C). MMSI: 605026210.

Date/timePositionNaut miles runAvg speedWind from/ knotsBaromVisibWave heightAir tempDewpointWater temp
2017-Apr-25 06:23N 35°53' W 000°15'4510.5
2017-Apr-25 02:08N 36°26' E 000°22'5213.3
2017-Apr-24 22:13N 36°42' E 001°24'513.9
2017-Apr-24 21:53N 36°43' E 001°30'1213.8
2017-Apr-24 21:03N 36°47' E 001°43'113.8
2017-Apr-24 21:00N 36°47' E 001°44'714.0
2017-Apr-24 20:30N 36°49' E 001°53'714.1
2017-Apr-24 20:00N 36°50' E 002°01'714.0
2017-Apr-24 19:30N 36°53' E 002°09'611.8
2017-Apr-24 19:00N 36°52' E 002°17'612.7
2017-Apr-24 18:30N 36°51' E 002°24'714.2
2017-Apr-24 18:00N 36°53' E 002°33'714.2
2017-Apr-24 17:30N 36°55' E 002°42'714.9
2017-Apr-24 17:00N 36°56' E 002°51'814.7
2017-Apr-24 16:29N 36°57' E 003°00'1815.0
2017-Apr-24 15:19N 36°59' E 003°22'414.8
2017-Apr-24 15:01N 36°59' E 003°28'714.8
2017-Apr-24 14:30N 37°00' E 003°37'1515.2
2017-Apr-24 13:30N 37°01' E 003°56'815.1
2017-Apr-24 13:00N 37°01' E 004°06'715.0
2017-Apr-24 12:30N 37°01' E 004°15'715.0
2017-Apr-24 12:00N 37°02' E 004°24'714.7
2017-Apr-24 11:30N 37°02' E 004°33'714.6
2017-Apr-24 11:01N 37°02' E 004°42'714.7
2017-Apr-24 10:30N 37°03' E 004°52'714.6
2017-Apr-24 10:00N 37°04' E 005°01'1214.0
2017-Apr-24 09:11N 37°08' E 005°14'2714.2
2017-Apr-24 07:15N 37°20' E 005°45'1514.0
2017-Apr-24 06:11N 37°27' E 006°02'2214.0
2017-Apr-24 04:37N 37°35' E 006°27'214.1
2017-Apr-24 04:29N 37°36' E 006°29'714.2
2017-Apr-24 04:00N 37°40' E 006°37'714.6
2017-Apr-24 03:30N 37°43' E 006°45'714.7
2017-Apr-24 03:00N 37°46' E 006°53'714.8
2017-Apr-24 02:30N 37°49' E 007°02'814.9
2017-Apr-24 02:00N 37°53' E 007°10'1214.5
2017-Apr-24 01:10N 37°58' E 007°24'214.3
2017-Apr-24 01:00N 37°59' E 007°27'914.3
2017-Apr-24 00:23N 38°03' E 007°37'514.5
2017-Apr-24 00:00N 38°06' E 007°43'814.4
2017-Apr-23 23:28N 38°09' E 007°52'5414.8
2017-Apr-23 19:51N 38°32' E 008°54'914.9
2017-Apr-23 19:16N 38°35' E 009°04'414.8
2017-Apr-23 19:00N 38°37' E 009°08'714.8
2017-Apr-23 18:30N 38°40' E 009°17'714.7
2017-Apr-23 18:00N 38°44' E 009°25'714.6
2017-Apr-23 17:30N 38°47' E 009°34'714.5
2017-Apr-23 17:00N 38°50' E 009°42'  
2017-Apr-19 10:22N 38°39' E 008°47'513.4
2017-Apr-19 10:00N 38°37' E 008°41'  
Track history (hours):
 
Tides and Currents Weather Stations Pressure Air Temp Water Temp Dewpoint Dewpoint Depression Visibility Wind Speed Wind Dir Waves Ship Positions

Rhourd El Adra

Last reported at 2017-Apr-25 06:23 UTC. Time now 2017-Apr-26 13:46 UTC.
Position N 35°53' W 000°15'.

Length 156 m; draft 6.8 m.

Type: Ship (hazmat cat C). MMSI: 605026210.

Date/timePositionNaut miles runAvg speedWind from/ knotsBaromVisibWave heightAir tempDewpointWater temp
2017-Apr-25 06:23N 35°53' W 000°15'4510.5
2017-Apr-25 02:08N 36°26' E 000°22'5213.3
2017-Apr-24 22:13N 36°42' E 001°24'513.9
2017-Apr-24 21:53N 36°43' E 001°30'1213.8
2017-Apr-24 21:03N 36°47' E 001°43'113.8
2017-Apr-24 21:00N 36°47' E 001°44'714.0
2017-Apr-24 20:30N 36°49' E 001°53'714.1
2017-Apr-24 20:00N 36°50' E 002°01'714.0
2017-Apr-24 19:30N 36°53' E 002°09'611.8
2017-Apr-24 19:00N 36°52' E 002°17'612.7
2017-Apr-24 18:30N 36°51' E 002°24'714.2
2017-Apr-24 18:00N 36°53' E 002°33'714.2
2017-Apr-24 17:30N 36°55' E 002°42'714.9
2017-Apr-24 17:00N 36°56' E 002°51'814.7
2017-Apr-24 16:29N 36°57' E 003°00'1815.0
2017-Apr-24 15:19N 36°59' E 003°22'414.8
2017-Apr-24 15:01N 36°59' E 003°28'714.8
2017-Apr-24 14:30N 37°00' E 003°37'1515.2
2017-Apr-24 13:30N 37°01' E 003°56'815.1
2017-Apr-24 13:00N 37°01' E 004°06'715.0
2017-Apr-24 12:30N 37°01' E 004°15'715.0
2017-Apr-24 12:00N 37°02' E 004°24'714.7
2017-Apr-24 11:30N 37°02' E 004°33'714.6
2017-Apr-24 11:01N 37°02' E 004°42'714.7
2017-Apr-24 10:30N 37°03' E 004°52'714.6
2017-Apr-24 10:00N 37°04' E 005°01'1214.0
2017-Apr-24 09:11N 37°08' E 005°14'2714.2
2017-Apr-24 07:15N 37°20' E 005°45'1514.0
2017-Apr-24 06:11N 37°27' E 006°02'2214.0
2017-Apr-24 04:37N 37°35' E 006°27'214.1
2017-Apr-24 04:29N 37°36' E 006°29'714.2
2017-Apr-24 04:00N 37°40' E 006°37'714.6
2017-Apr-24 03:30N 37°43' E 006°45'714.7
2017-Apr-24 03:00N 37°46' E 006°53'714.8
2017-Apr-24 02:30N 37°49' E 007°02'814.9
2017-Apr-24 02:00N 37°53' E 007°10'1214.5
2017-Apr-24 01:10N 37°58' E 007°24'214.3
2017-Apr-24 01:00N 37°59' E 007°27'914.3
2017-Apr-24 00:23N 38°03' E 007°37'514.5
2017-Apr-24 00:00N 38°06' E 007°43'814.4
2017-Apr-23 23:28N 38°09' E 007°52'5414.8
2017-Apr-23 19:51N 38°32' E 008°54'914.9
2017-Apr-23 19:16N 38°35' E 009°04'414.8
2017-Apr-23 19:00N 38°37' E 009°08'714.8
2017-Apr-23 18:30N 38°40' E 009°17'714.7
2017-Apr-23 18:00N 38°44' E 009°25'714.6
2017-Apr-23 17:30N 38°47' E 009°34'714.5
2017-Apr-23 17:00N 38°50' E 009°42'  
2017-Apr-19 10:22N 38°39' E 008°47'513.4
2017-Apr-19 10:00N 38°37' E 008°41'  

Dump ship's entire track history